createdAt,value
2019-02-24T00:02:23.539Z,11.44
2019-02-24T00:05:25.280Z,11.44
2019-02-24T00:08:27.039Z,11.38
2019-02-24T00:11:29.141Z,11.31
2019-02-24T00:14:31.142Z,11.31
2019-02-24T00:17:34.738Z,11.25
2019-02-24T00:20:36.487Z,11.19
2019-02-24T00:23:39.638Z,11.12
2019-02-24T00:26:41.290Z,11.12
2019-02-24T00:29:42.765Z,11.06
2019-02-24T00:32:44.276Z,11.00
2019-02-24T00:35:45.799Z,11.00
2019-02-24T00:38:50.014Z,10.94
2019-02-24T00:41:51.584Z,10.88
2019-02-24T00:44:53.349Z,10.88
2019-02-24T00:47:54.816Z,10.81
2019-02-24T00:50:56.276Z,10.75
2019-02-24T00:53:57.865Z,10.75
2019-02-24T00:56:59.335Z,10.69
2019-02-24T01:00:00.792Z,10.63
2019-02-24T01:03:02.437Z,10.63
2019-02-24T01:06:04.163Z,10.56
2019-02-24T01:09:06.856Z,10.56
2019-02-24T01:12:11.060Z,10.50
2019-02-24T01:15:12.228Z,10.44
2019-02-24T01:18:16.362Z,10.44
2019-02-24T01:21:17.995Z,10.38
2019-02-24T01:24:19.639Z,10.31
2019-02-24T01:27:21.152Z,10.25
2019-02-24T01:30:22.578Z,10.25
2019-02-24T01:33:24.050Z,10.25
2019-02-24T01:36:25.436Z,10.19
2019-02-24T01:39:27.001Z,10.13
2019-02-24T01:42:28.434Z,10.06
2019-02-24T01:45:30.245Z,10.06
2019-02-24T01:48:31.722Z,10.00
2019-02-24T01:51:33.375Z,10.00
2019-02-24T01:54:35.043Z,9.94
2019-02-24T01:57:36.777Z,9.88
2019-02-24T02:00:39.348Z,9.88
2019-02-24T02:03:40.905Z,9.81
2019-02-24T02:06:42.375Z,9.81
2019-02-24T02:09:43.835Z,9.69
2019-02-24T02:12:46.866Z,9.69
2019-02-24T02:15:49.356Z,9.63
2019-02-24T02:18:50.831Z,9.63
2019-02-24T02:21:52.468Z,9.56
2019-02-24T02:24:53.939Z,9.50
2019-02-24T02:27:55.885Z,9.50
2019-02-24T02:30:57.440Z,9.44
2019-02-24T02:33:59.088Z,9.38
2019-02-24T02:37:01.976Z,9.38
2019-02-24T02:40:03.715Z,9.31
2019-02-24T02:43:06.189Z,9.25
2019-02-24T02:46:07.665Z,9.25
2019-02-24T02:49:09.158Z,9.19
2019-02-24T02:52:13.153Z,9.13
2019-02-24T02:55:14.804Z,9.13
2019-02-24T02:58:18.019Z,9.06
2019-02-24T03:01:19.555Z,9.06
2019-02-24T03:04:20.997Z,9.00
2019-02-24T03:07:27.280Z,8.94
2019-02-24T03:10:28.643Z,8.94
2019-02-24T03:13:30.035Z,8.88
2019-02-24T03:16:31.414Z,8.88
2019-02-24T03:19:32.822Z,8.81
2019-02-24T03:22:34.206Z,8.75
2019-02-24T03:25:35.660Z,8.75
2019-02-24T03:28:38.018Z,8.69
2019-02-24T03:31:39.630Z,8.69
2019-02-24T03:34:41.334Z,8.63
2019-02-24T03:37:42.784Z,8.56
2019-02-24T03:40:44.244Z,8.56
2019-02-24T03:43:45.596Z,8.50
2019-02-24T03:46:46.959Z,8.50
2019-02-24T03:49:48.445Z,8.44
2019-02-24T03:52:49.922Z,8.38
2019-02-24T03:55:51.269Z,8.38
2019-02-24T03:58:53.601Z,8.31
2019-02-24T04:01:55.040Z,8.31
2019-02-24T04:04:56.476Z,8.25
2019-02-24T04:07:57.902Z,8.19
2019-02-24T04:10:59.288Z,8.19
2019-02-24T04:14:00.749Z,8.13
2019-02-24T04:17:02.159Z,8.13
2019-02-24T04:20:03.532Z,8.06
2019-02-24T04:23:04.933Z,8.06
2019-02-24T04:26:06.320Z,8.00
2019-02-24T04:29:07.715Z,8.00
2019-02-24T04:32:09.079Z,7.94
2019-02-24T04:35:10.588Z,7.87
2019-02-24T04:38:11.924Z,7.87
2019-02-24T04:41:13.293Z,7.81
2019-02-24T04:44:15.690Z,7.81
2019-02-24T04:47:17.136Z,7.75
2019-02-24T04:50:18.598Z,7.69
2019-02-24T04:53:20.051Z,7.69
2019-02-24T04:56:21.601Z,7.62
2019-02-24T04:59:23.048Z,7.62
2019-02-24T05:02:24.443Z,7.56
2019-02-24T05:05:25.818Z,7.56
2019-02-24T05:08:27.301Z,7.56
2019-02-24T05:11:28.702Z,7.50
2019-02-24T05:14:30.174Z,7.50
2019-02-24T05:17:31.574Z,7.44
2019-02-24T05:20:33.453Z,7.37
2019-02-24T05:23:34.985Z,7.37
2019-02-24T05:26:36.407Z,7.31
2019-02-24T05:29:45.730Z,7.31
2019-02-24T05:32:42.066Z,7.25
2019-02-24T05:35:43.509Z,7.25
2019-02-24T05:38:45.048Z,7.25
2019-02-24T05:41:46.930Z,7.19
2019-02-24T05:44:49.627Z,7.12
2019-02-24T05:47:51.168Z,7.12
2019-02-24T05:50:52.568Z,7.06
2019-02-24T05:53:53.969Z,7.06
2019-02-24T05:56:55.367Z,7.00
2019-02-24T05:59:56.839Z,7.00
2019-02-24T06:02:58.238Z,6.94
2019-02-24T06:05:59.695Z,6.94
2019-02-24T06:09:01.054Z,6.87
2019-02-24T06:12:04.255Z,6.81
2019-02-24T06:15:06.059Z,6.81
2019-02-24T06:18:07.432Z,6.75
2019-02-24T06:21:08.764Z,6.75
2019-02-24T06:24:10.349Z,6.75
2019-02-24T06:27:11.764Z,6.69
2019-02-24T06:30:13.134Z,6.69
2019-02-24T06:33:14.497Z,6.69
2019-02-24T06:36:15.868Z,6.69
2019-02-24T06:39:17.254Z,6.69
2019-02-24T06:42:18.707Z,6.69
2019-02-24T06:45:20.102Z,6.62
2019-02-24T06:48:21.474Z,6.69
2019-02-24T06:51:22.953Z,6.62
2019-02-24T06:54:24.319Z,6.62
2019-02-24T06:57:25.658Z,6.69
2019-02-24T07:00:27.040Z,6.69
2019-02-24T07:03:28.635Z,6.69
2019-02-24T07:06:30.008Z,6.75
2019-02-24T07:09:31.358Z,6.81
2019-02-24T07:12:32.717Z,6.87
2019-02-24T07:15:34.208Z,6.94
2019-02-24T07:18:35.670Z,7.00
2019-02-24T07:21:37.094Z,7.12
2019-02-24T07:24:38.481Z,7.19
2019-02-24T07:27:39.853Z,7.25
2019-02-24T07:30:41.309Z,7.31
2019-02-24T07:33:42.726Z,7.31
2019-02-24T07:36:44.109Z,7.31
2019-02-24T07:39:45.508Z,7.37
2019-02-24T07:42:46.869Z,7.44
2019-02-24T07:45:48.280Z,7.56
2019-02-24T07:48:51.360Z,7.62
2019-02-24T07:51:52.789Z,7.62
2019-02-24T07:54:54.447Z,7.75
2019-02-24T07:57:56.192Z,7.87
2019-02-24T08:00:58.162Z,8.00
2019-02-24T08:03:59.891Z,8.19
2019-02-24T08:07:01.767Z,8.38
2019-02-24T08:10:03.233Z,8.56
2019-02-24T08:13:04.732Z,8.69
2019-02-24T08:16:06.147Z,9.00
2019-02-24T08:19:07.742Z,9.19
2019-02-24T08:22:09.147Z,9.38
2019-02-24T08:25:10.593Z,9.50
2019-02-24T08:28:12.148Z,9.63
2019-02-24T08:31:14.061Z,9.75
2019-02-24T08:34:15.442Z,9.88
2019-02-24T08:37:16.986Z,10.06
2019-02-24T08:40:18.400Z,10.25
2019-02-24T08:43:19.868Z,11.06
2019-02-24T08:46:21.426Z,11.88
2019-02-24T08:49:23.943Z,12.37
2019-02-24T08:52:25.719Z,12.06
2019-02-24T08:55:27.265Z,11.50
2019-02-24T08:58:28.819Z,11.31
2019-02-24T09:01:30.284Z,11.38
2019-02-24T09:04:31.890Z,11.50
2019-02-24T09:07:33.351Z,11.69
2019-02-24T09:10:34.791Z,11.81
2019-02-24T09:13:36.699Z,12.00
2019-02-24T09:16:38.234Z,12.13
2019-02-24T09:19:39.835Z,12.31
2019-02-24T09:22:41.295Z,12.44
2019-02-24T09:25:42.723Z,12.56
2019-02-24T09:28:44.258Z,12.69
2019-02-24T09:31:45.965Z,12.81
2019-02-24T09:34:47.492Z,12.94
2019-02-24T09:37:49.029Z,13.06
2019-02-24T09:40:50.531Z,13.19
2019-02-24T09:43:51.952Z,13.31
2019-02-24T09:46:53.362Z,13.50
2019-02-24T09:49:54.947Z,13.62
2019-02-24T09:52:56.443Z,13.81
2019-02-24T09:55:58.164Z,13.94
2019-02-24T09:58:59.630Z,14.13
2019-02-24T10:02:01.205Z,14.25
2019-02-24T10:05:02.912Z,14.44
2019-02-24T10:08:05.102Z,14.63
2019-02-24T10:11:06.688Z,14.81
2019-02-24T10:14:08.206Z,15.00
2019-02-24T10:17:09.729Z,15.19
2019-02-24T10:20:11.514Z,15.31
2019-02-24T10:23:13.003Z,15.50
2019-02-24T10:26:14.545Z,15.69
2019-02-24T10:29:16.076Z,15.88
2019-02-24T10:32:17.512Z,16.06
2019-02-24T10:35:19.035Z,16.25
2019-02-24T10:38:20.678Z,16.50
2019-02-24T10:41:22.268Z,16.69
2019-02-24T10:44:23.805Z,16.87
2019-02-24T10:47:25.250Z,17.12
2019-02-24T10:50:26.784Z,17.31
2019-02-24T10:53:28.347Z,18.31
2019-02-24T10:56:30.792Z,18.69
2019-02-24T10:59:32.875Z,18.94
2019-02-24T11:02:34.490Z,19.12
2019-02-24T11:05:36.023Z,19.31
2019-02-24T11:08:37.897Z,19.50
2019-02-24T11:11:39.501Z,19.69
2019-02-24T11:14:41.022Z,19.87
2019-02-24T11:17:42.433Z,20.06
2019-02-24T11:20:43.900Z,20.31
2019-02-24T11:23:45.369Z,20.50
2019-02-24T11:26:46.834Z,20.69
2019-02-24T11:29:48.754Z,20.94
2019-02-24T11:32:50.255Z,21.19
2019-02-24T11:35:51.735Z,21.37
2019-02-24T11:38:53.285Z,21.56
2019-02-24T11:41:54.787Z,21.75
2019-02-24T11:44:56.314Z,22.00
2019-02-24T11:47:58.258Z,22.19
2019-02-24T11:50:59.912Z,22.44
2019-02-24T11:54:01.642Z,22.87
2019-02-24T11:57:03.331Z,23.50
2019-02-24T12:00:07.072Z,24.94
2019-02-24T12:03:12.235Z,26.06
2019-02-24T12:06:14.227Z,27.06
2019-02-24T12:09:15.957Z,27.75
2019-02-24T12:12:17.708Z,28.12
2019-02-24T12:15:19.468Z,27.37
2019-02-24T12:18:21.244Z,27.19
2019-02-24T12:21:24.324Z,27.37
2019-02-24T12:24:25.906Z,27.69
2019-02-24T12:27:27.754Z,27.69
2019-02-24T12:30:29.589Z,27.69
2019-02-24T12:33:31.242Z,27.94
2019-02-24T12:36:32.949Z,28.06
2019-02-24T12:39:34.788Z,28.38
2019-02-24T12:42:36.478Z,28.44
2019-02-24T12:45:38.110Z,28.31
2019-02-24T12:48:39.668Z,28.69
2019-02-24T12:51:41.356Z,28.81
2019-02-24T12:54:42.810Z,28.87
2019-02-24T12:57:44.314Z,29.25
2019-02-24T13:00:45.883Z,29.19
2019-02-24T13:03:47.346Z,29.44
2019-02-24T13:06:49.377Z,29.75
2019-02-24T13:09:50.978Z,29.81
2019-02-24T13:12:52.516Z,29.44
2019-02-24T13:15:54.150Z,29.56
2019-02-24T13:18:56.021Z,29.81
2019-02-24T13:21:57.682Z,29.50
2019-02-24T13:24:59.861Z,29.75
2019-02-24T13:28:01.448Z,29.87
2019-02-24T13:31:03.085Z,29.69
2019-02-24T13:34:05.315Z,28.38
2019-02-24T13:37:06.876Z,27.69
2019-02-24T13:40:09.722Z,27.44
2019-02-24T13:43:11.293Z,26.94
2019-02-24T13:46:12.953Z,27.00
2019-02-24T13:49:14.471Z,26.81
2019-02-24T13:52:16.043Z,27.13
2019-02-24T13:55:17.953Z,27.31
2019-02-24T13:58:20.930Z,27.56
2019-02-24T14:01:22.687Z,27.69
2019-02-24T14:04:26.191Z,27.75
2019-02-24T14:07:27.881Z,27.81
2019-02-24T14:10:29.601Z,27.81
2019-02-24T14:13:31.216Z,27.50
2019-02-24T14:16:32.906Z,27.50
2019-02-24T14:19:34.570Z,27.69
2019-02-24T14:22:37.639Z,27.81
2019-02-24T14:25:41.251Z,28.75
2019-02-24T14:28:42.585Z,30.25
2019-02-24T14:31:44.277Z,31.31
2019-02-24T14:34:45.897Z,32.13
2019-02-24T14:37:47.466Z,32.38
2019-02-24T14:40:49.019Z,32.63
2019-02-24T14:43:50.637Z,32.69
2019-02-24T14:46:52.329Z,32.88
2019-02-24T14:49:53.832Z,32.81
2019-02-24T14:52:55.311Z,32.81
2019-02-24T14:55:56.877Z,32.81
2019-02-24T14:58:58.408Z,32.88
2019-02-24T15:02:00.446Z,32.75
2019-02-24T15:05:02.189Z,32.50
2019-02-24T15:08:03.790Z,32.19
2019-02-24T15:11:05.860Z,31.44
2019-02-24T15:14:07.515Z,31.25
2019-02-24T15:17:09.700Z,31.19
2019-02-24T15:20:16.094Z,31.25
2019-02-24T15:23:17.944Z,31.25
2019-02-24T15:26:20.957Z,31.37
2019-02-24T15:29:22.865Z,30.94
2019-02-24T15:32:24.433Z,30.94
2019-02-24T15:35:27.754Z,31.25
2019-02-24T15:38:29.418Z,30.94
2019-02-24T15:41:31.403Z,30.94
2019-02-24T15:44:33.013Z,31.06
2019-02-24T15:47:34.654Z,30.94
2019-02-24T15:50:36.545Z,30.94
2019-02-24T15:53:38.127Z,30.69
2019-02-24T15:56:39.626Z,30.50
2019-02-24T15:59:41.247Z,30.56
2019-02-24T16:02:43.221Z,30.44
2019-02-24T16:05:44.827Z,30.44
2019-02-24T16:08:46.328Z,30.06
2019-02-24T16:11:47.873Z,30.06
2019-02-24T16:14:49.394Z,29.75
2019-02-24T16:17:51.440Z,29.37
2019-02-24T16:20:53.075Z,29.00
2019-02-24T16:23:55.065Z,28.87
2019-02-24T16:26:56.764Z,28.81
2019-02-24T16:29:58.313Z,28.50
2019-02-24T16:33:00.157Z,28.12
2019-02-24T16:36:02.937Z,27.69
2019-02-24T16:39:05.038Z,27.31
2019-02-24T16:42:07.550Z,26.75
2019-02-24T16:45:10.745Z,26.12
2019-02-24T16:48:12.370Z,25.69
2019-02-24T16:51:13.926Z,25.31
2019-02-24T16:54:15.415Z,24.94
2019-02-24T16:57:17.362Z,24.50
2019-02-24T17:00:21.099Z,24.31
2019-02-24T17:03:23.085Z,24.00
2019-02-24T17:06:24.693Z,23.69
2019-02-24T17:09:26.197Z,23.50
2019-02-24T17:12:27.903Z,23.19
2019-02-24T17:15:32.907Z,23.19
2019-02-24T17:18:34.521Z,23.19
2019-02-24T17:21:36.724Z,23.12
2019-02-24T17:24:38.820Z,23.06
2019-02-24T17:27:40.372Z,22.87
2019-02-24T17:30:41.880Z,22.81
2019-02-24T17:33:43.524Z,22.75
2019-02-24T17:36:45.475Z,22.69
2019-02-24T17:39:47.127Z,22.56
2019-02-24T17:42:48.783Z,22.44
2019-02-24T17:45:53.859Z,22.37
2019-02-24T17:48:56.404Z,22.25
2019-02-24T17:51:58.255Z,22.19
2019-02-24T17:54:59.916Z,22.06
2019-02-24T17:58:01.470Z,22.19
2019-02-24T18:01:04.659Z,22.37
2019-02-24T18:04:06.262Z,22.44
2019-02-24T18:07:08.158Z,22.44
2019-02-24T18:10:09.626Z,22.31
2019-02-24T18:13:11.409Z,22.25
2019-02-24T18:16:13.472Z,22.13
2019-02-24T18:19:15.050Z,22.06
2019-02-24T18:22:16.690Z,21.94
2019-02-24T18:25:18.584Z,21.81
2019-02-24T18:28:20.201Z,21.69
2019-02-24T18:31:21.932Z,21.62
2019-02-24T18:34:23.645Z,21.44
2019-02-24T18:37:26.110Z,21.37
2019-02-24T18:40:27.654Z,21.25
2019-02-24T18:43:29.205Z,21.06
2019-02-24T18:46:30.642Z,21.00
2019-02-24T18:49:32.415Z,20.88
2019-02-24T18:52:34.415Z,20.75
2019-02-24T18:55:36.037Z,20.62
2019-02-24T18:58:37.881Z,20.50
2019-02-24T19:01:39.522Z,20.44
2019-02-24T19:04:41.128Z,20.31
2019-02-24T19:07:44.027Z,20.19
2019-02-24T19:10:45.799Z,20.06
2019-02-24T19:13:48.477Z,19.94
2019-02-24T19:16:50.290Z,19.87
2019-02-24T19:19:51.846Z,19.75
2019-02-24T19:22:53.401Z,19.69
2019-02-24T19:25:55.027Z,19.56
2019-02-24T19:28:56.991Z,19.50
2019-02-24T19:31:58.581Z,19.37
2019-02-24T19:35:00.287Z,19.31
2019-02-24T19:38:02.317Z,19.19
2019-02-24T19:41:04.382Z,19.12
2019-02-24T19:44:06.041Z,19.00
2019-02-24T19:47:07.622Z,18.94
2019-02-24T19:50:13.131Z,18.81
2019-02-24T19:53:16.073Z,18.75
2019-02-24T19:56:17.543Z,18.62
2019-02-24T19:59:19.134Z,18.56
2019-02-24T20:02:20.697Z,18.44
2019-02-24T20:05:23.568Z,18.37
2019-02-24T20:08:25.200Z,18.25
2019-02-24T20:11:26.804Z,18.19
2019-02-24T20:14:28.854Z,18.12
2019-02-24T20:17:30.441Z,18.00
2019-02-24T20:20:32.055Z,17.94
2019-02-24T20:23:33.625Z,17.87
2019-02-24T20:26:35.386Z,17.75
2019-02-24T20:29:37.079Z,17.69
2019-02-24T20:32:38.816Z,17.62
2019-02-24T20:35:40.651Z,17.50
2019-02-24T20:38:42.195Z,17.44
2019-02-24T20:41:43.785Z,17.37
2019-02-24T20:44:45.314Z,17.25
2019-02-24T20:47:47.102Z,17.19
2019-02-24T20:50:48.685Z,17.12
2019-02-24T20:53:50.234Z,17.06
2019-02-24T20:56:51.825Z,16.94
2019-02-24T20:59:53.631Z,16.87
2019-02-24T21:02:55.662Z,16.81
2019-02-24T21:05:57.562Z,16.75
2019-02-24T21:08:59.126Z,16.69
2019-02-24T21:12:00.687Z,16.56
2019-02-24T21:15:02.167Z,16.50
2019-02-24T21:18:03.689Z,16.44
2019-02-24T21:21:05.569Z,16.37
2019-02-24T21:24:07.085Z,16.25
2019-02-24T21:27:08.618Z,16.19
2019-02-24T21:30:12.275Z,16.12
2019-02-24T21:33:14.217Z,16.06
2019-02-24T21:36:15.822Z,16.00
2019-02-24T21:39:17.298Z,15.94
2019-02-24T21:42:18.810Z,15.88
2019-02-24T21:45:20.847Z,15.75
2019-02-24T21:48:22.297Z,15.75
2019-02-24T21:51:24.079Z,15.63
2019-02-24T21:54:25.962Z,15.56
2019-02-24T21:57:27.468Z,15.50
2019-02-24T22:00:28.960Z,15.44
2019-02-24T22:03:30.409Z,15.38
2019-02-24T22:06:31.921Z,15.31
2019-02-24T22:09:33.412Z,15.25
2019-02-24T22:12:34.939Z,15.19
2019-02-24T22:15:36.786Z,15.13
2019-02-24T22:18:38.228Z,15.06
2019-02-24T22:21:39.771Z,15.00
2019-02-24T22:24:41.264Z,14.94
2019-02-24T22:27:42.673Z,14.87
2019-02-24T22:30:44.159Z,14.81
2019-02-24T22:33:45.621Z,14.75
2019-02-24T22:36:47.084Z,14.69
2019-02-24T22:39:48.556Z,14.63
2019-02-24T22:42:50.295Z,14.56
2019-02-24T22:45:51.843Z,14.50
2019-02-24T22:48:53.333Z,14.44
2019-02-24T22:51:54.769Z,14.38
2019-02-24T22:54:56.249Z,14.31
2019-02-24T22:57:57.746Z,14.25
2019-02-24T23:01:14.366Z,14.19
2019-02-24T23:04:17.637Z,14.13
2019-02-24T23:07:19.189Z,14.06
2019-02-24T23:10:20.728Z,14.00
2019-02-24T23:13:22.641Z,13.94
2019-02-24T23:16:24.309Z,13.88
2019-02-24T23:19:25.961Z,13.81
2019-02-24T23:22:27.480Z,13.75
2019-02-24T23:25:28.944Z,13.75
2019-02-24T23:28:30.455Z,13.69
2019-02-24T23:31:31.924Z,13.62
2019-02-24T23:34:33.363Z,13.56
2019-02-24T23:37:34.778Z,13.50
2019-02-24T23:40:36.576Z,13.44
2019-02-24T23:43:38.018Z,13.38
2019-02-24T23:46:39.405Z,13.31
2019-02-24T23:49:40.852Z,13.25
2019-02-24T23:52:42.268Z,13.19
2019-02-24T23:55:43.731Z,13.19
2019-02-24T23:58:45.123Z,13.13
